Pagina principale
METAR-TAF:

METAR-TAF

Aeroporti :

Pratica Di Mare, Italia

Aeroporto militare Mario de Bernardi

latitudine: 41-39N, longitudine: 012-27E, altezza: 6 m

Osservazione

Il bollettino è stato emesso 1 ora e 17 minuti fa, alle 10:55 UTC
Vento 6 kt da nord-ovest
Temperature 13°C
Umidità 62%
Pressione 1014 hPa
Visibilità 10 km o più
nessuna nube inferiore a 1500 m e nessun cumulonembo

METAR: LIRE 191055Z 32006KT CAVOK 13/06 Q1014 RMK SCT SCT200 VIS MIN 9999 WIND THR13 36007KT WIND THR31 /////KT BLU

Ora: 13:12 (12:12 UTC)

Previsione

Il bollettino è stato emesso 1 ora e 12 minuti fa, alle 11:00 UTC
Previsione valida dal 19 alle 12 UTC al 19 alle 21 UTC
Vento 8 kt da nord
Visibilità 10 km o più
nessuna nube inferiore a 1500 m e nessun cumulonembo

TAF: LIRE 191100Z 1912/1921 36008KT CAVOK

Osservazioni e previsioni meteorologiche di più di 4000 aeroporti (messaggi METAR e TAF).

Le stazioni disponibili sono rappresentate dai dischi gialli e rossi sulla carta.

Puntare il mouse per vedere il nome della stazione.

Clicca sopra per visualizzare le osservazioni e previsioni meteorologiche.

Per cambiare la mappa : fare clic sui pulsanti verdi con una croce nera per ingrandire, il pulsante verde con un trattino per diminuire, o sulla freccia verde per le mappe adiacenti.


METAR-TAF: